map of ZCQ home
ZCQ - Airport
Location
City:  Curicó, Maule, Chile
Name:General Freire Airport
ICAO:SCIC
IATA:ZCQ

Details
Type:Airport (Aerodrome, Airfield)
Use:Public/Civil
Latitude:34°58'00"S (-34.966666)
Longitude:71°12'59"W (-71.216388)
Elevation:722 ft (220 m)
Variation:2.95°E (WMM2015 magnetic declination)
-0.15° annual change
Runways:1
Longest:2477 × 59 ft (755 × 18 m), paved

Weather
METAR:SCIC 210200Z AUTO 23004KT 9999 NCD 21/07 Q1014

Related Locations
Nearby:
Farthest:ZLYN: 12401 mi / 19958 km
Xi'an Yanliang, 61, CN

Find:

   beyond  
but within

Other Information
Maps:
NOTAMs:
Links:
Sources:

  
  • flag of Chile
  • flag of Maule
  

Sectional Chart

Flight Planning
at skyvector.com

Satellite Image

Google Maps Satellite view

 

Copyright © 2004-2018 Karl L. Swartz. All rights reserved.
The Great Circle Mapper name and logo are trademarks of the Great Circle Mapper.
All other trademarks mentioned herein belong to their respective owners.
Please see credits for attibutions and further copyright information.

  Follow gcmap on Facebook Follow gcmap on Twitter Follow gcmap on Google+ GCmap on LinkedIn

hCard Microformat

Geo Microformat